Portland, Oregon
Traffic Map
Current Weather Conditions
Portland, Oregon
Few Clouds
Few Clouds
83°
Feels Like: 83°
Wind Chill: 83° Ceiling: Unl
Heat Index: 83° Visibility: 10mi
Dew Point: 54° Wind: 8mph
Humidity: 37% Direction: 330° (NNW)
Pressure: 30.05in Gusts: 0mph
Raw Report DataKPDX 162353Z 33007KT 10SM FEW250 28/12 A3005 RMK AO2 SLP176 T02830122 10289 20200 56014
Traffic Incident Summary
Active as of:
Severity:
Category:
InformationThere was an issue retrieving the traffic information for this location. Please try a different location or try again shortly.
Advertisements